createdAt,value
2023-01-23T00:02:51.561Z,58.97
2023-01-23T00:07:53.776Z,58.39
2023-01-23T00:12:58.025Z,57.90
2023-01-23T00:18:00.218Z,57.06
2023-01-23T00:23:02.354Z,56.88
2023-01-23T00:28:04.875Z,56.51
2023-01-23T00:33:07.098Z,56.46
2023-01-23T00:38:09.423Z,56.00
2023-01-23T00:43:11.778Z,55.46
2023-01-23T00:48:13.996Z,55.19
2023-01-23T00:53:16.563Z,55.11
2023-01-23T00:58:18.961Z,54.92
2023-01-23T01:03:21.278Z,54.76
2023-01-23T01:08:23.609Z,54.57
2023-01-23T01:13:26.459Z,54.45
2023-01-23T01:18:29.318Z,54.56
2023-01-23T01:23:31.558Z,54.44
2023-01-23T01:28:35.573Z,54.71
2023-01-23T01:33:39.295Z,54.61
2023-01-23T01:38:41.901Z,54.43
2023-01-23T01:43:44.939Z,54.63
2023-01-23T01:49:07.130Z,54.75
2023-01-23T01:54:11.786Z,55.04
2023-01-23T01:59:14.666Z,54.83
2023-01-23T02:04:16.834Z,54.93
2023-01-23T02:09:26.274Z,54.56
2023-01-23T02:14:28.585Z,54.89
2023-01-23T02:19:55.793Z,54.85
2023-01-23T02:25:17.483Z,55.27
2023-01-23T02:30:21.927Z,55.39
2023-01-23T02:35:29.634Z,55.64
2023-01-23T02:40:39.979Z,55.35
2023-01-23T02:45:42.571Z,55.61
2023-01-23T02:50:46.772Z,55.93
2023-01-23T02:55:49.226Z,55.89
2023-01-23T03:00:51.647Z,56.11
2023-01-23T03:05:55.934Z,56.23
2023-01-23T03:10:58.207Z,56.33
2023-01-23T03:16:00.498Z,57.08
2023-01-23T03:21:06.936Z,56.77
2023-01-23T03:26:09.087Z,57.18
2023-01-23T03:31:13.154Z,57.32
2023-01-23T03:36:15.408Z,56.88
2023-01-23T03:41:26.622Z,57.41
2023-01-23T03:46:28.837Z,57.40
2023-01-23T03:51:31.068Z,57.38
2023-01-23T03:56:33.429Z,57.66
2023-01-23T04:01:35.827Z,57.68
2023-01-23T04:06:38.000Z,58.49
2023-01-23T04:11:40.325Z,58.18
2023-01-23T04:16:42.483Z,58.50
2023-01-23T04:21:44.646Z,58.59
2023-01-23T04:26:46.830Z,59.06
2023-01-23T04:31:49.116Z,59.42
2023-01-23T04:36:51.403Z,59.68
2023-01-23T04:41:53.476Z,59.36
2023-01-23T04:46:55.654Z,59.21
2023-01-23T04:51:57.937Z,59.15
2023-01-23T04:57:00.211Z,59.29
2023-01-23T05:02:02.794Z,59.23
2023-01-23T05:07:05.063Z,59.39
2023-01-23T05:12:07.851Z,59.36
2023-01-23T05:17:10.180Z,59.75
2023-01-23T05:22:12.391Z,59.31
2023-01-23T05:27:14.999Z,59.54
2023-01-23T05:32:17.277Z,59.56
2023-01-23T05:37:20.759Z,59.43
2023-01-23T05:42:23.129Z,59.08
2023-01-23T05:47:25.421Z,59.24
2023-01-23T05:52:28.257Z,59.36
2023-01-23T05:57:30.372Z,59.92
2023-01-23T06:02:32.628Z,59.84
2023-01-23T06:07:34.824Z,60.02
2023-01-23T06:12:37.011Z,59.72
2023-01-23T06:17:39.179Z,59.70
2023-01-23T06:22:41.417Z,59.69
2023-01-23T06:27:43.709Z,59.83
2023-01-23T06:32:45.869Z,60.13
2023-01-23T06:37:48.374Z,59.90
2023-01-23T06:42:51.491Z,59.45
2023-01-23T06:47:53.922Z,59.55
2023-01-23T06:52:56.113Z,59.73
2023-01-23T06:57:58.281Z,59.82
2023-01-23T07:03:03.986Z,60.19
2023-01-23T07:08:07.375Z,59.79
2023-01-23T07:13:11.343Z,59.93
2023-01-23T07:18:13.671Z,60.18
2023-01-23T07:23:16.022Z,59.85
2023-01-23T07:28:18.242Z,60.41
2023-01-23T07:33:20.461Z,60.32
2023-01-23T07:38:26.256Z,59.88
2023-01-23T07:43:28.440Z,59.26
2023-01-23T07:48:30.807Z,59.09
2023-01-23T07:53:33.540Z,58.80
2023-01-23T07:58:35.749Z,58.39
2023-01-23T08:03:38.015Z,57.87
2023-01-23T08:08:40.655Z,57.74
2023-01-23T08:13:42.946Z,56.92
2023-01-23T08:18:45.288Z,56.61
2023-01-23T08:23:47.613Z,56.36
2023-01-23T08:28:49.881Z,55.78
2023-01-23T08:33:52.070Z,55.38
2023-01-23T08:38:54.277Z,55.36
2023-01-23T08:43:58.630Z,55.52
2023-01-23T08:49:00.774Z,55.51
2023-01-23T08:54:03.312Z,54.90
2023-01-23T08:59:05.631Z,53.52
2023-01-23T09:04:07.933Z,53.85
2023-01-23T09:09:10.127Z,54.05
2023-01-23T09:14:12.363Z,54.05
2023-01-23T09:19:17.308Z,53.57
2023-01-23T09:24:25.457Z,53.16
2023-01-23T09:29:27.669Z,52.96
2023-01-23T09:34:30.471Z,53.02
2023-01-23T09:39:32.662Z,53.60
2023-01-23T09:44:37.931Z,53.36
2023-01-23T09:49:42.525Z,52.94
2023-01-23T09:55:02.982Z,52.69
2023-01-23T10:00:34.763Z,52.70
2023-01-23T10:05:44.828Z,51.97
2023-01-23T10:10:54.397Z,51.33
2023-01-23T10:16:49.979Z,50.68
2023-01-23T10:22:39.251Z,50.54
2023-01-23T10:28:49.082Z,50.42
2023-01-23T10:34:19.253Z,50.61
2023-01-23T10:39:39.055Z,50.31
2023-01-23T10:44:41.334Z,50.24
2023-01-23T10:49:46.795Z,50.31
2023-01-23T10:54:49.004Z,50.17
2023-01-23T11:00:08.188Z,50.09
2023-01-23T11:05:52.954Z,50.32
2023-01-23T11:11:17.082Z,49.53
2023-01-23T11:16:22.770Z,49.59
2023-01-23T11:21:30.636Z,49.63
2023-01-23T11:26:34.565Z,50.09
2023-01-23T11:31:37.580Z,50.01
2023-01-23T11:37:16.042Z,50.71
2023-01-23T11:42:20.414Z,50.48
2023-01-23T11:47:48.263Z,50.32
2023-01-23T11:53:06.694Z,49.69
2023-01-23T11:58:18.157Z,49.20
2023-01-23T12:03:40.036Z,49.05
2023-01-23T12:09:17.058Z,48.86
2023-01-23T12:14:46.587Z,48.73
2023-01-23T12:20:01.085Z,48.69
2023-01-23T12:25:22.490Z,48.94
2023-01-23T12:30:47.868Z,49.06
2023-01-23T12:36:18.233Z,49.46
2023-01-23T12:41:28.175Z,49.19
2023-01-23T12:47:07.224Z,49.05
2023-01-23T12:52:21.827Z,48.93
2023-01-23T12:58:07.970Z,49.11
2023-01-23T13:03:47.008Z,49.73
2023-01-23T13:09:19.170Z,49.99
2023-01-23T13:14:29.101Z,49.55
2023-01-23T13:20:00.916Z,49.85
2023-01-23T13:25:13.244Z,50.03
2023-01-23T13:30:24.580Z,50.32
2023-01-23T13:35:45.236Z,50.37
2023-01-23T13:41:10.739Z,50.20
2023-01-23T13:46:38.778Z,50.69
2023-01-23T14:24:27.018Z,57.80
2023-01-23T14:29:29.315Z,57.52
2023-01-23T14:34:40.397Z,57.54
2023-01-23T14:39:53.126Z,57.57
2023-01-23T14:44:59.426Z,57.99
2023-01-23T14:50:03.286Z,58.83
2023-01-23T14:55:29.260Z,59.06
2023-01-23T15:00:34.524Z,59.13
2023-01-23T15:05:39.854Z,59.51
2023-01-23T15:10:46.932Z,59.84
2023-01-23T15:16:04.872Z,60.93
2023-01-23T15:21:09.058Z,60.46
2023-01-23T15:26:13.074Z,61.29
2023-01-23T15:31:41.051Z,60.60
2023-01-23T15:36:50.426Z,60.87
2023-01-23T15:41:56.395Z,60.94
2023-01-23T15:47:03.661Z,60.80
2023-01-23T15:52:25.008Z,60.70
2023-01-23T15:57:27.867Z,60.39
2023-01-23T16:02:32.974Z,60.49
2023-01-23T16:07:41.173Z,62.09
2023-01-23T16:12:44.398Z,61.72
2023-01-23T16:17:46.795Z,61.18
2023-01-23T16:23:11.772Z,60.91
2023-01-23T16:28:19.801Z,60.63
2023-01-23T16:33:22.648Z,61.55
2023-01-23T16:38:29.929Z,62.10
2023-01-23T16:43:32.309Z,62.19
2023-01-23T16:48:34.449Z,62.23
2023-01-23T16:53:40.938Z,62.11
2023-01-23T16:58:43.172Z,62.05
2023-01-23T17:03:45.653Z,62.05
2023-01-23T17:08:51.264Z,61.98
2023-01-23T17:14:02.058Z,61.76
2023-01-23T17:19:33.066Z,61.85
2023-01-23T17:24:35.290Z,61.96
2023-01-23T17:29:37.619Z,62.01
2023-01-23T17:34:48.870Z,61.86
2023-01-23T17:39:52.087Z,62.04
2023-01-23T17:44:54.246Z,61.70
2023-01-23T17:49:57.093Z,61.30
2023-01-23T17:54:59.252Z,61.46
2023-01-23T18:00:01.600Z,61.55
2023-01-23T18:05:05.498Z,61.25
2023-01-23T18:10:12.101Z,61.37
2023-01-23T18:15:16.893Z,60.96
2023-01-23T18:20:21.540Z,61.47
2023-01-23T18:25:26.491Z,61.31
2023-01-23T18:30:51.385Z,61.20
2023-01-23T18:36:19.175Z,61.17
2023-01-23T18:41:25.522Z,61.09
2023-01-23T18:46:28.443Z,61.22
2023-01-23T18:51:46.943Z,61.21
2023-01-23T18:57:27.379Z,61.09
2023-01-23T19:02:45.399Z,61.00
2023-01-23T19:07:49.207Z,60.76
2023-01-23T19:13:16.591Z,60.64
2023-01-23T19:18:40.366Z,60.89
2023-01-23T19:23:45.778Z,61.39
2023-01-23T19:28:48.308Z,61.24
2023-01-23T19:33:50.499Z,61.08
2023-01-23T19:38:53.527Z,61.36
2023-01-23T19:43:57.216Z,61.33
2023-01-23T19:49:01.629Z,63.70
2023-01-23T19:54:09.585Z,64.50
2023-01-23T19:59:11.841Z,64.82
2023-01-23T20:04:22.309Z,64.32
2023-01-23T20:09:24.476Z,63.80
2023-01-23T20:14:27.631Z,64.24
2023-01-23T20:19:29.728Z,63.90
2023-01-23T20:24:31.874Z,68.84
2023-01-23T20:29:34.093Z,72.46
2023-01-23T20:34:36.265Z,74.03
2023-01-23T20:39:38.468Z,76.02
2023-01-23T20:44:42.014Z,77.59
2023-01-23T20:49:44.227Z,76.16
2023-01-23T20:54:47.334Z,74.33
2023-01-23T20:59:49.566Z,75.36
2023-01-23T21:04:56.279Z,74.71
2023-01-23T21:09:58.384Z,73.53
2023-01-23T21:15:01.278Z,73.24
2023-01-23T21:20:03.664Z,74.73
2023-01-23T21:25:06.471Z,73.58
2023-01-23T21:30:09.294Z,73.37
2023-01-23T21:35:12.177Z,72.43
2023-01-23T21:40:14.562Z,72.51
2023-01-23T21:45:16.771Z,71.58
2023-01-23T21:50:18.968Z,70.74
2023-01-23T21:55:21.412Z,70.25
2023-01-23T22:00:41.816Z,70.10
2023-01-23T22:05:44.215Z,70.86
2023-01-23T22:10:46.341Z,69.91
2023-01-23T22:15:48.532Z,70.06
2023-01-23T22:21:03.988Z,68.92
2023-01-23T22:26:09.177Z,68.39
2023-01-23T22:31:16.239Z,68.31
2023-01-23T22:36:20.090Z,67.28
2023-01-23T22:41:23.289Z,67.20
2023-01-23T22:46:25.489Z,67.17
2023-01-23T22:51:28.542Z,67.00
2023-01-23T22:56:32.481Z,66.95
2023-01-23T23:01:35.072Z,66.99
2023-01-23T23:06:37.168Z,66.86
2023-01-23T23:11:40.227Z,68.44
2023-01-23T23:16:42.324Z,67.73
2023-01-23T23:21:44.523Z,68.32
2023-01-23T23:26:46.779Z,68.95
2023-01-23T23:31:51.936Z,68.66
2023-01-23T23:36:54.106Z,68.58
2023-01-23T23:41:56.287Z,68.68
2023-01-23T23:46:58.385Z,69.12
2023-01-23T23:52:00.655Z,69.50
2023-01-23T23:57:02.715Z,69.20
